createdAt,value
2018-07-19T00:01:32.977Z,72.70
2018-07-19T00:04:57.689Z,72.80
2018-07-19T00:08:22.452Z,73.50
2018-07-19T00:11:47.109Z,74.70
2018-07-19T00:15:11.731Z,74.80
2018-07-19T00:18:36.360Z,74.90
2018-07-19T00:22:00.991Z,75.20
2018-07-19T00:25:25.685Z,75.70
2018-07-19T00:28:50.339Z,77.10
2018-07-19T00:32:15.070Z,76.30
2018-07-19T00:35:39.754Z,77.00
2018-07-19T00:39:06.103Z,77.40
2018-07-19T00:42:30.780Z,77.70
2018-07-19T00:45:55.390Z,78.00
2018-07-19T00:49:20.121Z,77.80
2018-07-19T00:52:44.766Z,78.80
2018-07-19T00:56:09.478Z,78.10
2018-07-19T01:02:58.443Z,78.40
2018-07-19T01:06:23.111Z,78.40
2018-07-19T01:09:47.864Z,79.30
2018-07-19T01:13:12.537Z,78.60
2018-07-19T01:16:37.155Z,78.40
2018-07-19T01:23:26.161Z,78.00
2018-07-19T01:26:50.937Z,78.50
2018-07-19T01:30:15.599Z,77.40
2018-07-19T01:33:40.225Z,77.50
2018-07-19T01:37:04.883Z,77.80
2018-07-19T01:40:29.485Z,78.30
2018-07-19T01:43:54.179Z,78.90
2018-07-19T01:47:18.875Z,79.20
2018-07-19T01:50:43.521Z,78.10
2018-07-19T01:54:08.190Z,78.90
2018-07-19T01:57:32.903Z,79.80
2018-07-19T02:00:57.572Z,79.80
2018-07-19T02:04:22.209Z,79.50
2018-07-19T02:07:46.880Z,81.20
2018-07-19T02:11:11.595Z,80.70
2018-07-19T02:14:36.274Z,80.90
2018-07-19T02:18:00.923Z,80.90
2018-07-19T02:21:25.570Z,81.20
2018-07-19T02:24:50.209Z,81.30
2018-07-19T02:28:14.821Z,81.60
2018-07-19T02:31:39.493Z,82.20
2018-07-19T02:35:04.194Z,82.10
2018-07-19T02:38:28.845Z,81.10
2018-07-19T02:41:53.513Z,82.60
2018-07-19T02:45:18.157Z,82.60
2018-07-19T02:48:42.787Z,82.80
2018-07-19T02:52:07.691Z,82.80
2018-07-19T02:55:32.324Z,83.10
2018-07-19T02:58:56.965Z,82.70
2018-07-19T03:02:21.611Z,81.80
2018-07-19T03:05:46.303Z,81.60
2018-07-19T03:12:35.242Z,81.10
2018-07-19T03:15:59.903Z,80.70
2018-07-19T03:19:24.533Z,81.40
2018-07-19T03:22:49.195Z,80.10
2018-07-19T03:26:13.872Z,80.70
2018-07-19T03:29:38.581Z,81.40
2018-07-19T03:36:27.592Z,81.40
2018-07-19T03:39:52.255Z,80.80
2018-07-19T03:43:16.936Z,81.40
2018-07-19T03:46:41.593Z,81.00
2018-07-19T03:50:06.685Z,80.40
2018-07-19T03:53:31.371Z,80.50
2018-07-19T03:56:56.110Z,80.80
2018-07-19T04:00:20.749Z,81.10
2018-07-19T04:03:45.433Z,80.20
2018-07-19T04:07:10.120Z,79.80
2018-07-19T04:10:34.849Z,80.20
2018-07-19T04:13:59.527Z,81.20
2018-07-19T04:17:24.201Z,80.60
2018-07-19T04:20:48.877Z,80.00
2018-07-19T04:24:13.763Z,79.30
2018-07-19T04:27:38.401Z,77.90
2018-07-19T04:31:03.134Z,78.30
2018-07-19T04:34:27.801Z,78.80
2018-07-19T04:37:52.451Z,78.80
2018-07-19T04:41:17.113Z,79.00
2018-07-19T04:44:41.823Z,78.40
2018-07-19T04:48:06.650Z,77.50
2018-07-19T04:51:31.403Z,76.80
2018-07-19T04:54:56.198Z,75.70
2018-07-19T05:01:45.384Z,74.30
2018-07-19T05:08:34.440Z,75.00
2018-07-19T05:11:59.095Z,74.80
2018-07-19T05:15:23.758Z,75.10
2018-07-19T05:18:48.452Z,75.90
2018-07-19T05:22:13.221Z,75.40
2018-07-19T05:25:38.885Z,75.50
2018-07-19T05:29:03.541Z,73.80
2018-07-19T05:32:28.177Z,74.50
2018-07-19T05:39:17.628Z,73.30
2018-07-19T05:42:42.390Z,73.40
2018-07-19T05:46:07.279Z,71.60
2018-07-19T05:49:32.006Z,70.60
2018-07-19T05:52:56.722Z,70.20
2018-07-19T05:56:21.346Z,70.40
2018-07-19T05:59:46.030Z,70.90
2018-07-19T06:03:10.716Z,70.40
2018-07-19T06:06:35.388Z,70.20
2018-07-19T06:10:00.027Z,69.80
2018-07-19T06:13:24.652Z,70.40
2018-07-19T06:16:49.354Z,70.50
2018-07-19T06:20:14.050Z,69.60
2018-07-19T06:23:38.770Z,70.00
2018-07-19T06:27:03.479Z,68.90
2018-07-19T06:30:28.146Z,68.70
2018-07-19T06:33:52.821Z,69.70
2018-07-19T06:37:17.475Z,68.90
2018-07-19T06:40:42.169Z,68.00
2018-07-19T06:44:07.150Z,68.00
2018-07-19T06:47:31.820Z,68.60
2018-07-19T06:50:56.462Z,68.40
2018-07-19T06:54:21.196Z,68.80
2018-07-19T06:57:45.874Z,68.30
2018-07-19T07:01:10.570Z,68.60
2018-07-19T07:04:35.283Z,68.80
2018-07-19T07:07:59.938Z,67.20
2018-07-19T07:11:24.717Z,66.90
2018-07-19T07:14:50.174Z,66.00
2018-07-19T07:18:14.902Z,66.00
2018-07-19T07:21:39.597Z,65.60
2018-07-19T07:25:04.303Z,65.20
2018-07-19T07:28:28.982Z,65.00
2018-07-19T07:31:53.620Z,65.00
2018-07-19T07:35:18.497Z,65.70
2018-07-19T07:38:46.284Z,63.80
2018-07-19T07:42:10.944Z,63.70
2018-07-19T07:45:35.753Z,63.70
2018-07-19T07:49:00.415Z,62.60
2018-07-19T07:52:25.108Z,62.20
2018-07-19T07:55:49.911Z,63.10
2018-07-19T07:59:14.619Z,61.50
2018-07-19T08:02:39.341Z,61.40
2018-07-19T08:06:04.165Z,61.00
2018-07-19T08:09:28.971Z,60.70
2018-07-19T08:12:53.759Z,60.40
2018-07-19T08:16:18.575Z,59.90
2018-07-19T08:19:44.250Z,59.90
2018-07-19T08:23:09.290Z,59.80
2018-07-19T08:26:34.207Z,59.30
2018-07-19T08:29:58.858Z,59.10
2018-07-19T08:36:48.738Z,58.90
2018-07-19T08:40:16.298Z,59.00
2018-07-19T08:43:41.393Z,59.30
2018-07-19T08:47:06.340Z,58.80
2018-07-19T08:53:59.405Z,58.20
2018-07-19T08:57:24.174Z,58.60
2018-07-19T09:00:48.893Z,58.50
2018-07-19T09:04:13.629Z,58.20
2018-07-19T09:07:38.294Z,58.10
2018-07-19T09:11:02.920Z,58.50
2018-07-19T09:14:27.563Z,57.70
2018-07-19T09:17:52.249Z,56.90
2018-07-19T09:21:16.939Z,55.80
2018-07-19T09:24:41.637Z,55.60
2018-07-19T09:28:06.359Z,58.20
2018-07-19T09:31:31.160Z,57.80
2018-07-19T09:34:55.956Z,54.80
2018-07-19T09:38:21.184Z,55.20
2018-07-19T09:41:45.687Z,54.60
2018-07-19T09:45:10.318Z,54.80
2018-07-19T09:48:42.106Z,55.00
2018-07-19T09:52:07.834Z,55.30
2018-07-19T09:55:34.190Z,54.60
2018-07-19T09:58:59.566Z,56.90
2018-07-19T10:02:25.084Z,54.20
2018-07-19T10:05:51.546Z,54.60
2018-07-19T10:09:17.765Z,56.00
2018-07-19T10:22:58.509Z,53.50
2018-07-19T10:26:23.126Z,52.50
2018-07-19T10:29:47.698Z,51.70
2018-07-19T10:33:16.418Z,51.00
2018-07-19T10:36:40.916Z,51.50
2018-07-19T10:40:05.856Z,52.30
2018-07-19T10:43:30.433Z,50.90
2018-07-19T10:46:55.042Z,50.40
2018-07-19T10:50:19.632Z,50.20
2018-07-19T10:53:44.214Z,49.40
2018-07-19T10:57:08.776Z,50.00
2018-07-19T11:00:33.536Z,49.10
2018-07-19T11:07:23.097Z,50.20
2018-07-19T11:10:47.660Z,49.00
2018-07-19T11:14:12.280Z,48.40
2018-07-19T11:21:01.304Z,47.10
2018-07-19T11:24:25.998Z,47.80
2018-07-19T11:27:50.602Z,45.90
2018-07-19T11:31:15.238Z,46.70
2018-07-19T11:41:28.920Z,46.50
2018-07-19T11:48:17.764Z,45.10
2018-07-19T11:51:46.972Z,45.20
2018-07-19T11:55:12.028Z,44.10
2018-07-19T11:58:39.120Z,43.80
2018-07-19T12:02:04.329Z,42.20
2018-07-19T12:05:29.955Z,42.40
2018-07-19T12:12:21.102Z,41.90
2018-07-19T12:15:46.628Z,40.70
2018-07-19T12:19:12.777Z,39.60
2018-07-19T12:22:38.030Z,40.50
2018-07-19T12:26:04.046Z,40.80
2018-07-19T12:29:28.693Z,39.30
2018-07-19T12:32:53.297Z,39.40
2018-07-19T12:36:17.979Z,38.50
2018-07-19T12:39:42.540Z,38.70
2018-07-19T12:43:07.203Z,38.10
2018-07-19T12:46:31.889Z,36.80
2018-07-19T12:49:56.512Z,38.10
2018-07-19T12:53:21.100Z,39.20
2018-07-19T12:56:45.837Z,37.70
2018-07-19T13:00:10.522Z,40.30
2018-07-19T13:03:35.124Z,39.40
2018-07-19T13:07:00.745Z,36.60
2018-07-19T13:13:49.658Z,38.60
2018-07-19T13:17:14.405Z,37.90
2018-07-19T13:20:39.056Z,36.70
2018-07-19T13:24:03.714Z,36.00
2018-07-19T13:27:28.681Z,36.00
2018-07-19T13:30:53.363Z,35.60
2018-07-19T13:34:18.038Z,35.70
2018-07-19T13:37:42.641Z,36.10
2018-07-19T13:41:08.056Z,35.80
2018-07-19T13:44:32.725Z,35.70
2018-07-19T13:47:57.782Z,36.70
2018-07-19T13:54:49.294Z,35.40
2018-07-19T13:58:13.944Z,35.10
2018-07-19T14:01:38.865Z,35.20
2018-07-19T14:05:03.511Z,35.30
2018-07-19T14:08:28.141Z,34.50
2018-07-19T14:11:52.703Z,36.00
2018-07-19T14:15:17.302Z,36.10
2018-07-19T14:18:41.887Z,36.00
2018-07-19T14:22:06.508Z,34.90
2018-07-19T14:25:31.117Z,33.80
2018-07-19T14:28:55.720Z,34.20
2018-07-19T14:32:20.312Z,34.80
2018-07-19T14:35:44.986Z,34.20
2018-07-19T14:39:12.283Z,34.90
2018-07-19T14:42:36.796Z,34.40
2018-07-19T14:46:01.301Z,34.70
2018-07-19T14:49:25.876Z,34.50
2018-07-19T14:52:50.389Z,33.30
2018-07-19T14:59:39.277Z,32.70
2018-07-19T15:03:03.859Z,33.60
2018-07-19T15:06:28.360Z,33.00
2018-07-19T15:09:53.016Z,33.00
2018-07-19T15:13:17.632Z,33.90
2018-07-19T15:16:42.240Z,32.80
2018-07-19T15:20:06.794Z,32.80
2018-07-19T15:23:31.402Z,31.40
2018-07-19T15:26:55.972Z,30.70
2018-07-19T15:30:20.549Z,31.20
2018-07-19T15:33:45.120Z,31.00
2018-07-19T15:37:09.732Z,31.70
2018-07-19T15:40:34.327Z,31.80
2018-07-19T15:43:58.926Z,31.60
2018-07-19T15:47:23.466Z,31.30
2018-07-19T15:50:48.074Z,31.30
2018-07-19T15:54:12.748Z,30.90
2018-07-19T15:57:37.374Z,30.10
2018-07-19T16:01:02.026Z,29.70
2018-07-19T16:04:26.604Z,29.80
2018-07-19T16:07:51.330Z,29.80
2018-07-19T16:11:17.906Z,29.60
2018-07-19T16:14:42.697Z,29.30
2018-07-19T16:18:07.531Z,29.50
2018-07-19T16:21:32.096Z,29.40
2018-07-19T16:24:56.781Z,29.10
2018-07-19T16:28:21.302Z,29.60
2018-07-19T16:31:45.833Z,29.50
2018-07-19T16:35:10.408Z,29.30
2018-07-19T16:38:35.024Z,29.20
2018-07-19T16:41:59.610Z,29.20
2018-07-19T16:45:24.210Z,29.80
2018-07-19T16:48:50.486Z,30.50
2018-07-19T16:52:15.688Z,30.70
2018-07-19T16:59:04.738Z,30.10
2018-07-19T17:02:29.381Z,30.80
2018-07-19T17:05:54.127Z,29.30
2018-07-19T17:09:18.829Z,29.30
2018-07-19T17:12:43.506Z,29.50
2018-07-19T17:16:08.215Z,28.90
2018-07-19T17:19:32.959Z,29.80
2018-07-19T17:22:57.648Z,30.10
2018-07-19T17:26:22.357Z,29.80
2018-07-19T17:29:47.006Z,30.30
2018-07-19T17:33:11.678Z,29.50
2018-07-19T17:40:00.663Z,31.50
2018-07-19T17:43:25.320Z,32.20
2018-07-19T17:46:50.119Z,31.90
2018-07-19T17:50:14.775Z,31.70
2018-07-19T17:53:39.437Z,30.70
2018-07-19T17:57:04.121Z,31.60
2018-07-19T18:00:28.827Z,31.90
2018-07-19T18:03:53.630Z,32.30
2018-07-19T18:07:18.363Z,32.10
2018-07-19T18:10:43.066Z,32.50
2018-07-19T18:14:08.380Z,33.10
2018-07-19T18:17:33.062Z,33.20
2018-07-19T18:20:58.998Z,33.30
2018-07-19T18:24:23.690Z,33.70
2018-07-19T18:27:48.415Z,34.50
2018-07-19T18:31:13.870Z,35.30
2018-07-19T18:34:38.500Z,36.10
2018-07-19T18:38:03.162Z,36.00
2018-07-19T18:41:28.617Z,36.80
2018-07-19T18:44:53.416Z,36.80
2018-07-19T18:48:18.203Z,37.20
2018-07-19T19:01:55.417Z,39.20
2018-07-19T19:05:20.242Z,39.90
2018-07-19T19:08:44.926Z,40.60
2018-07-19T19:12:09.578Z,41.40
2018-07-19T19:18:58.601Z,43.70
2018-07-19T19:22:23.272Z,44.90
2018-07-19T19:29:12.476Z,46.10
2018-07-19T19:32:37.208Z,47.80
2018-07-19T19:36:01.909Z,47.50
2018-07-19T19:39:26.757Z,48.30
2018-07-19T19:46:17.908Z,49.20
2018-07-19T19:49:42.616Z,49.80
2018-07-19T19:53:07.304Z,50.70
2018-07-19T19:56:31.958Z,51.00
2018-07-19T19:59:56.927Z,52.00
2018-07-19T20:06:45.952Z,52.60
2018-07-19T20:10:11.690Z,53.30
2018-07-19T20:13:36.350Z,53.40
2018-07-19T20:17:01.064Z,51.60
2018-07-19T20:20:25.700Z,51.20
2018-07-19T20:23:50.340Z,51.80
2018-07-19T20:27:14.977Z,52.50
2018-07-19T20:30:39.673Z,54.60
2018-07-19T20:34:04.440Z,53.90
2018-07-19T20:37:29.180Z,54.30
2018-07-19T20:40:53.893Z,56.20
2018-07-19T20:44:18.556Z,56.00
2018-07-19T20:47:43.237Z,55.30
2018-07-19T20:54:32.241Z,54.80
2018-07-19T21:01:21.180Z,54.40
2018-07-19T21:04:45.847Z,55.30
2018-07-19T21:08:10.563Z,55.90
2018-07-19T21:11:35.188Z,56.90
2018-07-19T21:14:59.865Z,56.90
2018-07-19T21:21:48.918Z,57.30
2018-07-19T21:25:13.598Z,58.60
2018-07-19T21:28:38.246Z,58.80
2018-07-19T21:32:03.064Z,58.50
2018-07-19T21:35:27.750Z,59.30
2018-07-19T21:42:16.696Z,60.60
2018-07-19T21:45:41.384Z,60.10
2018-07-19T21:49:06.766Z,60.00
2018-07-19T21:52:31.445Z,59.80
2018-07-19T21:59:20.666Z,60.00
2018-07-19T22:02:45.452Z,62.30
2018-07-19T22:06:10.450Z,61.60
2018-07-19T22:09:35.168Z,62.00
2018-07-19T22:13:00.211Z,62.30
2018-07-19T22:19:50.566Z,62.60
2018-07-19T22:23:15.621Z,62.10
2018-07-19T22:26:40.548Z,61.60
2018-07-19T22:30:05.386Z,61.20
2018-07-19T22:33:30.145Z,62.20
2018-07-19T22:36:54.836Z,63.20
2018-07-19T22:40:19.481Z,63.20
2018-07-19T22:43:44.209Z,60.80
2018-07-19T22:53:57.662Z,62.10
2018-07-19T22:57:24.188Z,63.00
2018-07-19T23:00:48.955Z,63.50
2018-07-19T23:04:13.739Z,63.20
2018-07-19T23:07:38.803Z,62.50
2018-07-19T23:11:03.616Z,62.70
2018-07-19T23:14:28.300Z,62.20
2018-07-19T23:17:54.150Z,62.70
2018-07-19T23:28:07.766Z,64.50
2018-07-19T23:31:32.549Z,65.00
2018-07-19T23:34:57.396Z,65.60
2018-07-19T23:38:27.204Z,65.60
2018-07-19T23:42:28.810Z,65.90
2018-07-19T23:45:58.816Z,65.70
2018-07-19T23:56:12.239Z,66.70
2018-07-19T23:59:37.744Z,67.10
